Time;durP1;ratioP1;P1;durP2;ratioP2;P2;SDS_P1;SDS_P2;PMS_P1;PMS_P2;Temp;Humidity;BMP_temperature;BMP_pressure;BME280_temperature;BME280_humidity;BME280_pressure;Samples;Min_cycle;Max_cycle;Signal;HPM_P1;HPM_P2
2021/12/19 00:00:57;;;;;;;3.83;2.65;;;9.10;86.60;;;;;;5047470;28;20056;-83
2021/12/19 00:11:08;;;;;;;5.00;2.25;;;9.10;86.80;;;;;;5051409;28;20029;-83
2021/12/19 00:13:34;;;;;;;3.33;2.55;;;9.10;86.80;;;;;;5052054;28;20024;-82
2021/12/19 00:15:59;;;;;;;3.80;2.30;;;9.10;86.80;;;;;;5049163;28;20024;-82
2021/12/19 00:18:25;;;;;;;3.75;2.63;;;9.10;86.60;;;;;;5050599;28;20128;-82
2021/12/19 00:20:50;;;;;;;3.58;2.50;;;9.10;86.60;;;;;;5046749;28;20414;-82
2021/12/19 00:23:16;;;;;;;3.90;2.60;;;9.00;86.70;;;;;;5038027;28;20112;-81
2021/12/19 00:25:42;;;;;;;2.40;2.03;;;9.10;86.70;;;;;;5043424;28;20055;-81
2021/12/19 00:28:08;;;;;;;4.85;2.97;;;9.10;86.70;;;;;;5042600;28;20581;-82
2021/12/19 00:30:34;;;;;;;4.78;2.58;;;9.10;86.50;;;;;;5047565;28;20053;-81
2021/12/19 00:33:00;;;;;;;3.38;2.30;;;9.10;86.40;;;;;;5044717;28;20052;-80
2021/12/19 00:35:26;;;;;;;3.92;3.00;;;9.10;86.50;;;;;;5048976;28;20025;-80
2021/12/19 00:37:52;;;;;;;3.05;2.20;;;9.10;86.40;;;;;;5047089;28;20025;-80
2021/12/19 00:40:19;;;;;;;2.95;2.30;;;9.10;86.40;;;;;;5048348;28;20060;-80
2021/12/19 00:42:51;;;;;;;3.28;2.20;;;9.10;86.30;;;;;;5042044;28;20469;-80
2021/12/19 00:45:26;;;;;;;3.13;2.72;;;9.10;86.30;;;;;;5048623;28;20075;-80
2021/12/19 00:47:52;;;;;;;3.83;2.60;;;9.00;86.30;;;;;;5045837;28;20044;-80
2021/12/19 00:50:18;;;;;;;4.72;2.45;;;9.00;86.40;;;;;;5051249;28;20527;-81
2021/12/19 00:52:46;;;;;;;3.22;2.40;;;9.00;86.40;;;;;;5047562;28;20067;-81
2021/12/19 00:55:13;;;;;;;4.72;2.47;;;9.00;86.30;;;;;;5048241;28;20067;-80
2021/12/19 00:57:38;;;;;;;3.38;2.55;;;9.00;86.30;;;;;;5048647;28;20033;-79
2021/12/19 01:00:06;;;;;;;4.90;3.03;;;9.00;86.30;;;;;;5044167;28;20395;-79
2021/12/19 01:02:32;;;;;;;3.75;2.13;;;9.00;86.30;;;;;;5045196;28;20119;-79
2021/12/19 01:04:57;;;;;;;3.50;2.50;;;8.90;86.30;;;;;;5049292;28;20140;-80
2021/12/19 01:07:23;;;;;;;4.13;2.33;;;8.90;86.30;;;;;;5048905;28;20021;-79
2021/12/19 01:09:48;;;;;;;3.63;2.50;;;9.00;86.40;;;;;;5049219;28;20035;-81
2021/12/19 01:12:14;;;;;;;4.68;2.35;;;9.00;86.30;;;;;;5046367;28;20020;-80
2021/12/19 01:14:40;;;;;;;4.97;2.47;;;9.00;86.30;;;;;;5048746;28;20040;-81
2021/12/19 01:17:07;;;;;;;4.40;3.00;;;9.00;86.30;;;;;;5051173;28;20029;-81
2021/12/19 01:19:34;;;;;;;3.20;2.30;;;9.00;86.30;;;;;;5046812;28;20029;-81
2021/12/19 01:21:59;;;;;;;3.17;2.40;;;9.00;86.20;;;;;;5044255;28;20074;-81
2021/12/19 01:24:25;;;;;;;6.53;2.58;;;9.00;86.20;;;;;;5040591;28;20415;-81
2021/12/19 01:26:50;;;;;;;3.20;2.20;;;8.90;86.20;;;;;;5048869;28;20460;-81
2021/12/19 01:29:16;;;;;;;3.88;2.47;;;9.00;86.20;;;;;;5050063;28;20108;-80
2021/12/19 01:31:42;;;;;;;3.20;2.30;;;8.90;86.10;;;;;;5043743;28;20021;-81
2021/12/19 01:34:12;;;;;;;5.15;2.67;;;9.00;86.20;;;;;;5045263;28;20176;-81
2021/12/19 01:36:41;;;;;;;3.65;2.30;;;8.90;86.20;;;;;;5063005;28;20021;-81
2021/12/19 01:39:08;;;;;;;4.82;2.28;;;9.00;86.20;;;;;;5045417;28;20407;-81
2021/12/19 01:41:33;;;;;;;2.83;2.13;;;9.10;86.20;;;;;;5047928;28;20533;-81
2021/12/19 01:43:59;;;;;;;2.85;2.10;;;9.10;86.10;;;;;;5048877;28;20049;-81
2021/12/19 01:46:24;;;;;;;4.03;2.10;;;9.10;86.00;;;;;;5048460;28;20029;-80
2021/12/19 01:48:50;;;;;;;3.60;2.20;;;9.10;85.90;;;;;;5044961;28;20028;-80
2021/12/19 01:51:16;;;;;;;3.17;2.00;;;9.20;85.90;;;;;;5047837;28;20078;-80
2021/12/19 01:53:42;;;;;;;3.95;2.10;;;9.10;85.70;;;;;;5059133;28;20052;-80
2021/12/19 01:56:07;;;;;;;4.55;2.40;;;9.10;85.80;;;;;;5039619;28;20549;-80
2021/12/19 01:58:34;;;;;;;2.55;1.92;;;9.10;85.70;;;;;;5045669;28;20018;-79
2021/12/19 02:01:00;;;;;;;3.15;2.17;;;9.20;85.90;;;;;;5042626;28;20029;-79
2021/12/19 02:03:26;;;;;;;2.75;2.03;;;9.10;85.90;;;;;;5046450;28;20025;-80
2021/12/19 02:05:52;;;;;;;5.25;2.33;;;9.20;86.00;;;;;;5048664;28;20064;-81
2021/12/19 02:08:18;;;;;;;2.75;1.80;;;9.20;85.80;;;;;;5046189;28;20057;-80
2021/12/19 02:10:45;;;;;;;3.80;2.15;;;9.20;85.80;;;;;;5049618;28;20048;-81
2021/12/19 02:13:12;;;;;;;4.13;2.28;;;9.20;85.80;;;;;;5048070;28;20040;-81
2021/12/19 02:15:40;;;;;;;5.15;2.70;;;9.20;85.80;;;;;;5048836;28;20013;-81
2021/12/19 02:18:17;;;;;;;4.68;2.70;;;9.20;85.90;;;;;;5047075;28;20050;-81
2021/12/19 02:20:47;;;;;;;5.32;2.55;;;9.20;85.90;;;;;;5048339;28;20396;-81
2021/12/19 02:23:13;;;;;;;2.20;1.85;;;9.20;85.70;;;;;;5047314;28;20021;-80
2021/12/19 02:25:40;;;;;;;5.25;2.40;;;9.20;85.90;;;;;;5048120;28;20423;-81
2021/12/19 02:28:06;;;;;;;3.00;2.20;;;9.20;86.00;;;;;;5048075;28;20114;-81
2021/12/19 02:30:32;;;;;;;3.78;2.05;;;9.20;85.90;;;;;;5046659;28;20484;-81
2021/12/19 02:32:58;;;;;;;2.17;1.70;;;9.20;86.00;;;;;;5046270;28;20045;-81
2021/12/19 02:35:28;;;;;;;2.83;2.15;;;9.20;86.00;;;;;;5047731;28;20112;-81
2021/12/19 02:48:44;;;;;;;2.30;1.60;;;9.10;86.00;;;;;;5041263;28;20041;-81
2021/12/19 02:51:10;;;;;;;1.58;1.27;;;9.10;86.00;;;;;;5047411;28;20033;-80
2021/12/19 02:53:41;;;;;;;1.33;1.23;;;9.10;86.10;;;;;;5047911;28;20052;-81
2021/12/19 02:56:11;;;;;;;3.58;1.90;;;9.10;86.10;;;;;;5039526;28;20037;-81
2021/12/19 02:58:39;;;;;;;2.22;1.48;;;9.00;86.10;;;;;;5048846;28;20058;-81
2021/12/19 03:01:08;;;;;;;1.98;1.50;;;9.00;86.20;;;;;;5044781;28;20021;-81
2021/12/19 03:03:34;;;;;;;1.55;1.40;;;9.00;86.30;;;;;;5047962;28;20060;-81
2021/12/19 03:06:02;;;;;;;1.73;1.40;;;9.10;86.30;;;;;;5050111;28;20029;-81
2021/12/19 03:08:29;;;;;;;1.70;1.40;;;9.00;86.20;;;;;;5052870;28;20418;-81
2021/12/19 03:18:45;;;;;;;1.60;1.50;;;9.00;86.40;;;;;;5047182;28;20048;-80
2021/12/19 03:21:15;;;;;;;1.88;1.70;;;9.00;86.50;;;;;;5051309;28;20037;-81
2021/12/19 03:23:41;;;;;;;2.03;1.45;;;9.10;86.50;;;;;;5051940;28;20496;-80
2021/12/19 03:26:07;;;;;;;1.67;1.50;;;9.10;86.40;;;;;;5051201;28;20082;-81
2021/12/19 03:28:32;;;;;;;2.20;1.67;;;9.10;86.30;;;;;;5051890;28;20033;-81
2021/12/19 03:30:58;;;;;;;1.40;1.30;;;9.10;86.20;;;;;;5047264;28;20501;-81
2021/12/19 03:33:24;;;;;;;2.03;1.60;;;9.10;86.30;;;;;;5051826;28;20017;-81
2021/12/19 03:35:50;;;;;;;2.10;1.70;;;9.10;86.20;;;;;;5049519;28;20533;-80
2021/12/19 03:38:17;;;;;;;1.85;1.52;;;9.10;86.10;;;;;;5041126;28;20053;-81
2021/12/19 03:40:51;;;;;;;1.80;1.50;;;9.20;86.40;;;;;;5058756;28;20114;-81
2021/12/19 03:43:22;;;;;;;1.88;1.50;;;9.10;86.30;;;;;;5051595;28;20028;-81
2021/12/19 03:45:49;;;;;;;2.13;1.60;;;9.20;86.30;;;;;;5048852;28;20516;-81
2021/12/19 03:48:16;;;;;;;1.88;1.48;;;9.10;86.30;;;;;;5051705;28;20226;-82
2021/12/19 03:50:45;;;;;;;1.70;1.40;;;9.20;86.30;;;;;;5048110;28;20383;-80
2021/12/19 03:53:12;;;;;;;1.80;1.38;;;9.20;86.30;;;;;;5042254;28;20025;-80
2021/12/19 03:55:39;;;;;;;2.40;1.65;;;9.30;86.50;;;;;;5044729;28;20021;-80
2021/12/19 03:58:05;;;;;;;2.20;1.60;;;9.30;86.30;;;;;;5046123;28;20036;-81
2021/12/19 04:00:31;;;;;;;2.08;1.63;;;9.30;86.30;;;;;;5045676;28;20025;-80
2021/12/19 04:03:04;;;;;;;2.17;1.52;;;9.30;86.90;;;;;;5050152;28;20048;-80
2021/12/19 04:05:29;;;;;;;;;;;9.30;86.20;;;;;;5050047;28;20039;-80
2021/12/19 04:07:55;;;;;;;1.88;1.52;;;9.30;86.20;;;;;;5051751;28;19912;-80
2021/12/19 04:10:22;;;;;;;1.88;1.48;;;9.30;86.10;;;;;;5047571;28;20033;-81
2021/12/19 04:12:51;;;;;;;2.17;1.40;;;9.30;86.30;;;;;;5049267;28;20070;-81
2021/12/19 04:15:17;;;;;;;1.77;1.48;;;9.40;86.30;;;;;;5051093;28;20040;-81
2021/12/19 04:17:43;;;;;;;2.70;1.80;;;9.40;86.20;;;;;;5049276;28;20498;-80
2021/12/19 04:20:11;;;;;;;2.08;1.65;;;9.40;86.10;;;;;;5046241;28;20044;-80
2021/12/19 04:22:36;;;;;;;2.17;1.60;;;9.40;86.10;;;;;;5050031;28;20088;-81
2021/12/19 04:25:02;;;;;;;1.95;1.33;;;9.40;86.20;;;;;;5049140;28;20059;-81
2021/12/19 04:27:29;;;;;;;2.15;1.48;;;9.40;86.20;;;;;;5046213;28;20114;-81
2021/12/19 04:29:55;;;;;;;2.40;1.83;;;9.40;86.20;;;;;;5046100;28;20032;-80
2021/12/19 04:32:26;;;;;;;2.08;1.80;;;9.40;86.10;;;;;;5050020;28;20488;-80
2021/12/19 04:34:52;;;;;;;2.25;1.65;;;9.40;86.20;;;;;;5040619;28;20025;-80
2021/12/19 04:51:37;;;;;;;2.85;2.00;;;9.40;86.10;;;;;;5048795;28;20047;-81
2021/12/19 04:56:38;;;;;;;2.65;2.05;;;9.30;86.30;;;;;;5048966;28;20051;-80
2021/12/19 04:59:15;;;;;;;2.95;2.05;;;9.40;86.40;;;;;;5043799;28;20029;-80
2021/12/19 05:04:53;;;;;;;2.60;1.90;;;9.40;86.40;;;;;;5043092;28;20174;-80
2021/12/19 05:15:26;;;;;;;2.92;2.13;;;9.50;86.30;;;;;;5046380;28;20071;-81
2021/12/19 05:18:00;;;;;;;3.45;2.30;;;9.50;86.30;;;;;;5047361;28;20021;-80
2021/12/19 05:20:28;;;;;;;3.78;2.38;;;9.50;86.30;;;;;;5049332;28;20043;-79
2021/12/19 05:23:00;;;;;;;3.67;2.47;;;9.50;86.30;;;;;;5050062;28;20021;-80
2021/12/19 05:25:26;;;;;;;3.17;2.28;;;9.40;86.30;;;;;;5048467;28;20036;-80
2021/12/19 05:27:53;;;;;;;4.28;3.03;;;9.40;86.40;;;;;;5049159;28;20021;-81
2021/12/19 05:30:20;;;;;;;2.47;1.98;;;9.40;86.50;;;;;;5047243;28;20036;-81
2021/12/19 05:32:47;;;;;;;3.03;1.92;;;9.30;86.60;;;;;;5041556;28;20040;-80
2021/12/19 05:35:20;;;;;;;2.03;1.70;;;9.40;86.70;;;;;;5050421;28;20021;-80
2021/12/19 05:45:58;;;;;;;3.20;1.88;;;9.50;86.70;;;;;;5040770;28;20086;-80
2021/12/19 05:48:24;;;;;;;2.38;1.75;;;9.60;86.70;;;;;;5046091;28;20021;-80
2021/12/19 05:50:49;;;;;;;2.80;2.10;;;9.60;86.70;;;;;;5047681;28;20657;-80
2021/12/19 05:53:15;;;;;;;3.17;2.08;;;9.70;86.80;;;;;;5049986;28;20029;-80
2021/12/19 05:55:41;;;;;;;2.47;1.85;;;9.70;86.60;;;;;;5043241;28;20021;-80
2021/12/19 05:58:07;;;;;;;1.55;1.45;;;9.70;86.50;;;;;;5048455;28;20048;-82
2021/12/19 06:00:34;;;;;;;2.72;1.85;;;9.70;86.50;;;;;;5049034;28;20041;-79
2021/12/19 06:03:01;;;;;;;3.15;2.00;;;9.70;86.50;;;;;;5049318;28;20017;-80
2021/12/19 06:05:27;;;;;;;3.35;2.05;;;9.70;86.50;;;;;;5048377;28;20029;-80
2021/12/19 06:07:52;;;;;;;2.55;1.73;;;9.70;86.40;;;;;;5046853;28;20040;-80
2021/12/19 06:10:19;;;;;;;2.53;2.00;;;9.70;86.50;;;;;;5048526;28;20028;-81
2021/12/19 06:12:45;;;;;;;2.00;1.60;;;9.60;86.60;;;;;;5045270;28;20131;-80
2021/12/19 06:15:11;;;;;;;1.98;1.52;;;9.60;86.50;;;;;;5046653;28;20075;-80
2021/12/19 06:17:38;;;;;;;1.67;1.30;;;9.60;86.70;;;;;;5047277;28;20074;-79
2021/12/19 06:20:04;;;;;;;2.13;1.42;;;9.60;86.60;;;;;;5045610;28;20399;-80
2021/12/19 06:22:30;;;;;;;1.35;1.25;;;9.50;86.60;;;;;;5043858;28;20495;-79
2021/12/19 06:24:55;;;;;;;1.27;1.05;;;9.50;86.60;;;;;;5047318;28;20039;-79
2021/12/19 06:27:21;;;;;;;1.20;1.10;;;9.50;86.70;;;;;;5047753;28;20021;-80
2021/12/19 06:29:46;;;;;;;1.10;1.00;;;9.50;86.70;;;;;;5048461;28;20597;-79
2021/12/19 06:32:12;;;;;;;1.20;1.10;;;9.40;86.70;;;;;;5047378;28;20028;-80
2021/12/19 06:34:38;;;;;;;1.10;1.00;;;9.40;86.60;;;;;;5047074;28;20452;-80
2021/12/19 06:37:08;;;;;;;1.30;1.20;;;9.30;86.60;;;;;;5047680;28;20021;-79
2021/12/19 06:39:34;;;;;;;1.02;0.90;;;9.30;86.70;;;;;;5047968;28;20468;-80
2021/12/19 06:42:00;;;;;;;1.55;1.13;;;9.30;86.80;;;;;;5049067;28;20152;-79
2021/12/19 06:44:26;;;;;;;1.00;0.90;;;9.20;86.70;;;;;;5051854;28;20659;-80
2021/12/19 06:46:52;;;;;;;1.00;0.80;;;9.20;86.80;;;;;;5050554;28;20376;-80
2021/12/19 06:49:17;;;;;;;0.70;0.70;;;9.20;86.70;;;;;;5050768;28;20364;-81
2021/12/19 06:51:43;;;;;;;0.80;0.80;;;9.20;86.70;;;;;;5050681;28;20609;-82
2021/12/19 06:54:09;;;;;;;0.68;0.68;;;9.10;86.60;;;;;;5048731;28;20040;-80
2021/12/19 06:56:35;;;;;;;0.70;0.70;;;9.00;86.60;;;;;;5052043;28;20021;-80
2021/12/19 06:59:00;;;;;;;0.70;0.70;;;9.00;86.60;;;;;;5048170;28;20068;-80
2021/12/19 07:01:26;;;;;;;0.77;0.70;;;9.00;86.70;;;;;;5051328;28;20111;-80
2021/12/19 07:03:52;;;;;;;0.98;0.70;;;9.00;86.80;;;;;;5049766;28;20112;-79
2021/12/19 07:06:18;;;;;;;0.70;0.70;;;9.00;86.80;;;;;;5050983;28;20084;-79
2021/12/19 07:08:43;;;;;;;0.88;0.80;;;9.00;86.70;;;;;;5049914;28;20558;-81
2021/12/19 07:11:09;;;;;;;0.75;0.65;;;9.00;86.70;;;;;;5051328;28;20044;-80
2021/12/19 07:13:34;;;;;;;0.60;0.60;;;9.00;86.70;;;;;;5049945;28;20017;-80
2021/12/19 07:16:00;;;;;;;0.80;0.80;;;9.00;86.70;;;;;;5051221;28;20028;-82
2021/12/19 07:18:26;;;;;;;0.60;0.60;;;8.90;86.60;;;;;;5050355;28;20025;-82
2021/12/19 07:20:51;;;;;;;0.60;0.60;;;9.00;86.70;;;;;;5051426;28;20049;-81
2021/12/19 07:23:19;;;;;;;0.70;0.70;;;9.00;86.70;;;;;;5049455;28;20028;-81
2021/12/19 07:25:45;;;;;;;0.73;0.73;;;9.00;86.60;;;;;;5050838;28;20025;-81
2021/12/19 07:28:12;;;;;;;0.70;0.70;;;9.00;86.60;;;;;;5049931;28;20032;-81
2021/12/19 07:30:39;;;;;;;0.68;0.68;;;9.00;86.50;;;;;;5051134;28;20118;-80
2021/12/19 07:33:07;;;;;;;0.80;0.70;;;9.00;86.50;;;;;;5050934;28;20463;-82
2021/12/19 07:35:37;;;;;;;0.93;0.85;;;9.00;86.50;;;;;;5050271;28;20429;-81
2021/12/19 07:38:04;;;;;;;0.80;0.73;;;9.00;86.40;;;;;;5049436;28;20700;-81
2021/12/19 07:40:36;;;;;;;0.70;0.70;;;9.00;86.40;;;;;;5048513;28;20043;-81
2021/12/19 07:43:06;;;;;;;0.65;0.65;;;8.90;86.50;;;;;;5048025;28;20024;-81
2021/12/19 07:45:32;;;;;;;0.95;0.80;;;8.90;86.60;;;;;;5063833;28;20479;-81
2021/12/19 07:47:58;;;;;;;0.80;0.70;;;8.90;86.70;;;;;;5047952;28;20021;-78
2021/12/19 07:50:25;;;;;;;0.88;0.88;;;8.80;86.70;;;;;;5050510;28;20039;-79
2021/12/19 07:52:51;;;;;;;0.80;0.80;;;8.80;86.80;;;;;;5047630;28;20032;-79
2021/12/19 07:55:17;;;;;;;1.08;0.85;;;8.80;86.90;;;;;;5049945;28;20049;-79
2021/12/19 07:57:42;;;;;;;0.70;0.70;;;8.70;86.80;;;;;;5051151;28;20423;-78
2021/12/19 08:00:10;;;;;;;0.93;0.80;;;8.70;86.80;;;;;;5049373;28;20029;-78
2021/12/19 08:02:36;;;;;;;0.80;0.80;;;8.80;86.90;;;;;;5050508;28;20009;-79
2021/12/19 08:05:02;;;;;;;0.85;0.82;;;8.70;86.80;;;;;;5049743;28;20388;-78
2021/12/19 08:07:28;;;;;;;1.05;0.90;;;8.80;87.00;;;;;;5044698;28;20100;-79
2021/12/19 08:10:00;;;;;;;0.80;0.80;;;8.80;87.00;;;;;;5047994;28;20021;-78
2021/12/19 08:12:26;;;;;;;0.70;0.70;;;8.80;86.90;;;;;;5048582;28;20017;-78
2021/12/19 08:14:52;;;;;;;0.70;0.70;;;8.90;86.90;;;;;;5048300;28;20025;-78
2021/12/19 08:17:17;;;;;;;0.80;0.80;;;8.90;86.90;;;;;;5044628;28;20025;-78
2021/12/19 08:19:43;;;;;;;0.82;0.65;;;8.90;86.90;;;;;;5045831;28;20167;-77
2021/12/19 08:22:09;;;;;;;0.98;0.80;;;8.90;86.80;;;;;;5047134;28;20067;-78
2021/12/19 08:24:35;;;;;;;0.70;0.70;;;8.90;86.80;;;;;;5043811;28;20053;-79
2021/12/19 08:35:24;;;;;;;1.10;1.00;;;8.40;84.60;;;;;;5128350;27;20379;-79
2021/12/19 08:37:49;;;;;;;0.80;0.80;;;8.30;85.30;;;;;;5105083;28;20050;-81
2021/12/19 08:40:15;;;;;;;0.93;0.88;;;8.20;86.40;;;;;;5102995;28;20135;-78
2021/12/19 08:42:40;;;;;;;0.70;0.70;;;8.20;87.20;;;;;;5110865;28;20028;-78
2021/12/19 08:45:07;;;;;;;0.80;0.80;;;8.20;87.60;;;;;;5105748;28;20107;-78
2021/12/19 08:47:33;;;;;;;0.90;0.90;;;8.20;87.80;;;;;;5105158;28;20020;-78
2021/12/19 08:49:59;;;;;;;0.65;0.65;;;8.30;87.90;;;;;;5101468;28;20042;-78
2021/12/19 08:52:24;;;;;;;0.60;0.60;;;8.40;87.90;;;;;;5101850;28;20028;-79
2021/12/19 08:54:50;;;;;;;0.80;0.80;;;8.40;87.90;;;;;;5099292;28;20075;-78
2021/12/19 08:57:15;;;;;;;0.90;0.90;;;8.40;87.80;;;;;;5107007;28;20047;-78
2021/12/19 08:59:42;;;;;;;0.70;0.70;;;8.50;87.70;;;;;;5099338;28;20414;-78
2021/12/19 09:02:08;;;;;;;0.90;0.90;;;8.50;87.70;;;;;;5099243;28;20013;-78
2021/12/19 09:04:34;;;;;;;0.80;0.80;;;8.50;87.60;;;;;;5092299;28;20016;-77
2021/12/19 09:07:00;;;;;;;1.55;1.00;;;8.60;87.60;;;;;;5094543;28;20027;-78
2021/12/19 09:09:26;;;;;;;1.42;1.05;;;8.60;87.60;;;;;;5099611;28;20024;-78
2021/12/19 09:11:52;;;;;;;0.98;0.98;;;8.50;87.50;;;;;;5096440;28;20019;-79
2021/12/19 09:14:18;;;;;;;0.80;0.80;;;8.50;87.60;;;;;;5092199;28;20128;-78
2021/12/19 09:16:44;;;;;;;1.17;1.05;;;8.60;87.60;;;;;;5098297;28;20028;-79
2021/12/19 09:19:11;;;;;;;1.20;1.10;;;8.60;87.60;;;;;;5091384;28;20028;-79
2021/12/19 09:21:36;;;;;;;1.85;1.30;;;8.60;87.50;;;;;;5097908;28;20055;-79
2021/12/19 09:24:03;;;;;;;1.80;1.00;;;8.60;87.50;;;;;;5097524;27;20047;-78
2021/12/19 09:26:28;;;;;;;1.38;1.10;;;8.60;87.40;;;;;;5091640;28;20062;-80
2021/12/19 09:28:54;;;;;;;2.25;1.42;;;8.60;87.50;;;;;;5097744;28;20019;-80
2021/12/19 09:31:21;;;;;;;1.58;1.10;;;8.60;87.50;;;;;;5095946;28;20023;-79
2021/12/19 09:33:47;;;;;;;1.35;1.15;;;8.70;87.60;;;;;;5106306;28;20060;-78
2021/12/19 09:36:12;;;;;;;2.65;1.67;;;8.70;87.70;;;;;;5095008;28;20585;-78
2021/12/19 09:38:39;;;;;;;2.17;1.38;;;8.70;87.50;;;;;;5095039;28;20382;-78
2021/12/19 09:41:13;;;;;;;2.38;1.60;;;8.70;87.40;;;;;;5098582;28;20050;-79
2021/12/19 09:43:42;;;;;;;1.75;1.40;;;8.70;87.30;;;;;;5100057;28;20027;-81
2021/12/19 09:46:16;;;;;;;1.70;1.40;;;8.80;87.40;;;;;;5086315;28;20031;-80
2021/12/19 09:48:45;;;;;;;2.17;1.58;;;8.80;87.40;;;;;;5076123;28;20101;-80
2021/12/19 09:51:13;;;;;;;1.83;1.40;;;8.80;87.30;;;;;;5081881;28;20029;-81
2021/12/19 09:53:40;;;;;;;2.33;1.40;;;8.80;87.30;;;;;;5081759;28;20035;-81
2021/12/19 09:56:06;;;;;;;2.85;1.60;;;8.80;87.20;;;;;;5083782;28;20038;-80
2021/12/19 09:58:34;;;;;;;3.22;1.65;;;8.80;87.20;;;;;;5085280;28;20017;-80
2021/12/19 10:01:00;;;;;;;3.33;2.13;;;8.80;87.20;;;;;;5080591;28;20035;-80
2021/12/19 10:03:26;;;;;;;2.83;1.92;;;8.80;87.20;;;;;;5081170;28;20029;-80
2021/12/19 10:06:16;;;;;;;2.00;1.60;;;8.80;87.20;;;;;;5086765;28;20019;-80
2021/12/19 10:08:43;;;;;;;3.50;2.10;;;8.80;87.20;;;;;;5085349;28;20036;-81
2021/12/19 10:11:32;;;;;;;4.30;2.50;;;8.80;87.10;;;;;;5085289;28;20535;-81
2021/12/19 10:13:58;;;;;;;5.05;2.53;;;8.80;87.20;;;;;;5079592;28;20081;-80
2021/12/19 10:16:33;;;;;;;3.60;1.95;;;8.80;87.20;;;;;;5077639;28;20016;-80
2021/12/19 10:19:00;;;;;;;3.20;1.90;;;8.80;87.20;;;;;;5081020;28;20048;-80
2021/12/19 10:21:29;;;;;;;3.05;2.03;;;8.90;87.20;;;;;;5074571;28;20383;-80
2021/12/19 10:24:00;;;;;;;3.70;2.10;;;8.90;87.10;;;;;;5082194;28;20019;-81
2021/12/19 10:26:38;;;;;;;1.92;1.80;;;8.80;87.00;;;;;;5086981;28;20020;-81
2021/12/19 10:29:03;;;;;;;4.78;2.60;;;8.80;87.00;;;;;;5086692;28;20027;-80
2021/12/19 10:31:29;;;;;;;4.32;1.88;;;8.80;87.00;;;;;;5089670;28;20032;-80
2021/12/19 10:33:55;;;;;;;2.92;1.83;;;8.80;87.00;;;;;;5095057;28;20059;-80
2021/12/19 10:36:21;;;;;;;3.42;1.85;;;8.80;87.10;;;;;;5096749;28;20031;-78
2021/12/19 10:38:50;;;;;;;3.70;2.10;;;8.80;87.00;;;;;;5091447;28;20035;-81
2021/12/19 10:41:33;;;;;;;3.67;2.10;;;8.80;87.10;;;;;;5084796;28;20128;-80
2021/12/19 10:44:07;;;;;;;4.68;2.20;;;8.80;87.10;;;;;;5084911;28;20027;-79
2021/12/19 10:46:37;;;;;;;4.63;2.08;;;8.90;87.10;;;;;;5084470;28;20630;-81
2021/12/19 10:49:04;;;;;;;2.78;1.90;;;8.90;87.00;;;;;;5092208;28;20028;-78
2021/12/19 10:51:32;;;;;;;4.45;2.33;;;8.90;87.00;;;;;;5094226;28;20031;-81
2021/12/19 10:54:02;;;;;;;2.78;1.88;;;8.90;87.00;;;;;;5083525;28;20137;-81
2021/12/19 10:56:33;;;;;;;3.70;1.77;;;8.90;87.00;;;;;;5082939;28;20067;-82
2021/12/19 10:59:05;;;;;;;3.78;2.05;;;8.90;87.00;;;;;;5080995;28;20020;-82
2021/12/19 11:01:35;;;;;;;3.65;1.85;;;9.00;87.00;;;;;;5080545;28;20035;-84
2021/12/19 11:04:05;;;;;;;2.95;1.90;;;9.00;87.00;;;;;;5083038;28;20039;-80
2021/12/19 11:06:32;;;;;;;3.67;1.90;;;9.00;86.90;;;;;;5085250;28;20583;-81
2021/12/19 11:09:00;;;;;;;4.60;2.20;;;9.00;86.90;;;;;;5084980;28;20131;-81
2021/12/19 11:11:39;;;;;;;5.30;2.53;;;9.00;87.00;;;;;;5080627;28;20024;-81
2021/12/19 11:14:05;;;;;;;3.97;2.25;;;9.00;87.00;;;;;;5080048;28;20044;-84
2021/12/19 11:16:30;;;;;;;5.05;2.22;;;9.00;87.00;;;;;;5085365;28;20031;-83
2021/12/19 11:18:56;;;;;;;2.88;1.77;;;9.00;86.90;;;;;;5083391;28;21364;-80
2021/12/19 11:21:22;;;;;;;2.35;1.60;;;9.00;86.90;;;;;;5085618;28;20020;-81
2021/12/19 11:23:48;;;;;;;4.60;2.17;;;9.00;86.90;;;;;;5089334;28;20024;-80
2021/12/19 11:26:17;;;;;;;3.55;1.90;;;9.00;86.90;;;;;;5087290;28;20505;-80
2021/12/19 11:28:43;;;;;;;5.85;2.28;;;9.10;87.00;;;;;;5085199;28;20046;-82
2021/12/19 11:31:11;;;;;;;4.70;2.08;;;9.00;86.90;;;;;;5089997;28;20024;-82
2021/12/19 11:34:03;;;;;;;5.13;2.40;;;9.00;86.90;;;;;;5089012;28;20042;-82
2021/12/19 11:36:36;;;;;;;4.35;2.38;;;9.00;87.00;;;;;;5088038;28;20043;-82
2021/12/19 11:39:04;;;;;;;3.42;2.10;;;9.00;86.90;;;;;;5092881;28;20027;-81
2021/12/19 11:41:31;;;;;;;5.32;2.50;;;9.00;86.90;;;;;;5094931;28;20057;-82
2021/12/19 11:44:01;;;;;;;4.05;2.30;;;9.00;87.00;;;;;;5091707;28;20020;-82
2021/12/19 11:46:46;;;;;;;5.57;2.20;;;9.00;87.00;;;;;;5089103;28;20027;-80
2021/12/19 11:49:20;;;;;;;7.10;2.72;;;9.00;87.00;;;;;;5078452;28;20097;-80
2021/12/19 11:51:46;;;;;;;2.85;2.20;;;9.00;86.90;;;;;;5091175;28;20457;-80
2021/12/19 11:54:14;;;;;;;4.40;2.25;;;9.10;86.90;;;;;;5090661;28;20069;-80
2021/12/19 11:57:10;;;;;;;3.15;1.80;;;9.10;86.80;;;;;;5087574;28;20024;-81
2021/12/19 11:59:38;;;;;;;4.18;2.10;;;9.00;86.80;;;;;;5085826;28;20024;-80
2021/12/19 12:02:24;;;;;;;3.85;2.15;;;9.00;86.80;;;;;;5091199;28;20492;-80
2021/12/19 12:05:15;;;;;;;3.83;1.90;;;9.00;86.80;;;;;;5097589;28;20031;-80
2021/12/19 12:08:06;;;;;;;3.28;1.65;;;9.00;86.80;;;;;;5082383;28;20060;-79
2021/12/19 12:10:50;;;;;;;3.80;2.00;;;9.00;86.80;;;;;;5080181;28;20475;-79
2021/12/19 12:13:30;;;;;;;4.50;2.22;;;9.00;86.90;;;;;;5088191;28;20043;-80
2021/12/19 12:16:09;;;;;;;3.38;1.80;;;9.00;86.80;;;;;;5086486;28;20049;-79
2021/12/19 12:18:43;;;;;;;4.13;2.00;;;9.00;86.80;;;;;;5084766;28;20048;-80
2021/12/19 12:21:18;;;;;;;3.03;1.77;;;9.00;86.70;;;;;;5085992;28;20151;-78
2021/12/19 12:23:59;;;;;;;2.20;1.20;;;9.00;86.80;;;;;;5083891;28;20606;-79
2021/12/19 12:26:30;;;;;;;1.80;1.30;;;8.90;86.70;;;;;;5089391;28;20028;-79
2021/12/19 12:28:57;;;;;;;4.63;1.70;;;8.90;86.70;;;;;;5093337;28;20051;-79
2021/12/19 12:31:24;;;;;;;2.42;1.50;;;8.90;86.80;;;;;;5088533;28;20549;-80
2021/12/19 12:33:54;;;;;;;2.40;1.90;;;9.00;86.90;;;;;;5082863;28;20028;-79
2021/12/19 12:36:21;;;;;;;2.95;1.67;;;9.00;86.90;;;;;;5079929;28;20065;-78
2021/12/19 12:38:52;;;;;;;2.63;1.80;;;9.00;86.90;;;;;;5078891;28;20039;-80
2021/12/19 12:41:29;;;;;;;2.88;1.73;;;9.00;86.80;;;;;;5077029;28;20111;-80
2021/12/19 12:44:02;;;;;;;3.35;1.70;;;9.00;86.90;;;;;;5101752;28;20028;-80
2021/12/19 12:46:28;;;;;;;2.60;1.60;;;9.00;86.80;;;;;;5088717;28;20444;-79
2021/12/19 12:49:12;;;;;;;3.60;1.90;;;9.00;86.80;;;;;;5093446;28;20020;-79
2021/12/19 12:51:40;;;;;;;3.75;1.92;;;9.00;86.80;;;;;;5094481;28;20027;-81
2021/12/19 12:54:27;;;;;;;4.45;2.15;;;9.00;86.80;;;;;;5092409;28;20082;-80
2021/12/19 12:56:56;;;;;;;4.63;2.42;;;9.00;86.90;;;;;;5086851;28;20062;-81
2021/12/19 12:59:28;;;;;;;4.50;2.10;;;9.00;86.90;;;;;;5088095;28;20454;-82
2021/12/19 13:02:10;;;;;;;4.37;2.37;;;9.00;87.00;;;;;;5090220;28;20351;-81
2021/12/19 13:04:38;;;;;;;3.03;2.05;;;9.00;86.90;;;;;;5083638;28;20028;-80
2021/12/19 13:07:13;;;;;;;3.30;1.83;;;9.00;86.90;;;;;;5080830;28;20028;-82
2021/12/19 13:09:45;;;;;;;3.15;2.20;;;9.00;86.90;;;;;;5096014;28;20016;-81
2021/12/19 13:12:14;;;;;;;2.45;1.58;;;9.00;86.80;;;;;;5087278;28;20032;-82
2021/12/19 13:14:42;;;;;;;3.85;1.75;;;9.00;86.90;;;;;;5084814;28;20020;-82
2021/12/19 13:17:12;;;;;;;3.80;2.15;;;9.00;86.90;;;;;;5082660;28;20479;-82
2021/12/19 13:19:47;;;;;;;3.70;1.88;;;8.90;86.90;;;;;;5079092;28;20059;-81
2021/12/19 13:22:32;;;;;;;3.45;1.70;;;9.00;87.20;;;;;;5087832;28;20114;-80
2021/12/19 13:25:03;;;;;;;2.47;1.88;;;9.00;87.10;;;;;;5090187;28;20047;-92
2021/12/19 13:27:30;;;;;;;2.17;1.67;;;9.00;87.00;;;;;;5089763;28;20070;-79
2021/12/19 13:30:04;;;;;;;2.15;1.50;;;9.00;87.00;;;;;;5093982;28;20023;-80
2021/12/19 13:32:34;;;;;;;2.45;1.70;;;9.00;87.00;;;;;;5085801;28;20029;-79
2021/12/19 13:35:02;;;;;;;4.35;1.90;;;9.00;87.00;;;;;;5083926;28;20035;-79
2021/12/19 13:37:33;;;;;;;3.03;1.70;;;9.00;87.00;;;;;;5087614;28;20027;-79
2021/12/19 13:40:02;;;;;;;2.75;1.60;;;9.00;87.10;;;;;;5093453;28;20058;-79
2021/12/19 13:42:39;;;;;;;2.25;1.60;;;9.00;87.00;;;;;;5091701;28;20387;-79
2021/12/19 13:45:23;;;;;;;3.28;1.60;;;9.00;87.00;;;;;;5088942;28;20498;-79
2021/12/19 13:47:49;;;;;;;2.67;1.60;;;9.00;86.90;;;;;;5088025;28;20490;-80
2021/12/19 13:50:16;;;;;;;6.13;1.67;;;9.00;87.00;;;;;;5089299;28;20032;-78
2021/12/19 13:52:41;;;;;;;2.92;1.70;;;9.00;87.00;;;;;;5090366;28;20028;-79
2021/12/19 13:55:09;;;;;;;3.03;1.55;;;9.00;87.00;;;;;;5091492;28;20032;-79
2021/12/19 13:57:36;;;;;;;3.25;1.30;;;9.00;87.10;;;;;;5091847;28;20028;-79
2021/12/19 14:00:04;;;;;;;2.63;1.40;;;9.00;87.20;;;;;;5086880;28;20045;-79
2021/12/19 14:02:38;;;;;;;2.33;1.30;;;9.00;87.10;;;;;;5092437;28;20490;-79
2021/12/19 14:05:36;;;;;;;1.05;1.00;;;9.00;87.10;;;;;;5092207;28;20034;-79
2021/12/19 14:08:26;;;;;;;3.35;1.52;;;9.00;87.00;;;;;;5091389;28;20508;-79
2021/12/19 14:11:17;;;;;;;2.78;1.50;;;9.00;87.00;;;;;;5091703;28;20077;-79
2021/12/19 14:14:00;;;;;;;2.72;1.52;;;9.00;87.10;;;;;;5091470;28;20154;-78
2021/12/19 14:16:41;;;;;;;2.72;1.70;;;8.90;87.10;;;;;;5084622;28;20040;-78